createdAt,value
2023-04-15T00:01:48.051Z,9.30
2023-04-15T00:04:14.749Z,9.15
2023-04-15T00:06:41.698Z,8.63
2023-04-15T00:09:08.142Z,8.55
2023-04-15T00:11:34.798Z,9.02
2023-04-15T00:14:01.284Z,8.80
2023-04-15T00:16:28.436Z,10.52
2023-04-15T00:18:55.075Z,9.13
2023-04-15T00:21:21.820Z,9.27
2023-04-15T00:23:52.577Z,9.02
2023-04-15T00:26:19.767Z,8.32
2023-04-15T00:28:48.937Z,8.25
2023-04-15T00:31:15.686Z,7.40
2023-04-15T00:33:42.260Z,7.00
2023-04-15T00:36:08.845Z,6.65
2023-04-15T00:38:39.131Z,6.65
2023-04-15T00:41:05.743Z,5.70
2023-04-15T00:43:32.306Z,5.65
2023-04-15T00:45:59.963Z,5.32
2023-04-15T00:48:27.943Z,5.78
2023-04-15T00:50:54.420Z,5.13
2023-04-15T00:53:20.892Z,4.97
2023-04-15T00:55:47.510Z,4.95
2023-04-15T00:58:14.758Z,5.03
2023-04-15T01:00:42.934Z,5.10
2023-04-15T01:03:10.035Z,5.28
2023-04-15T01:05:36.934Z,5.05
2023-04-15T01:08:03.742Z,4.90
2023-04-15T01:10:31.898Z,4.63
2023-04-15T01:12:58.476Z,5.00
2023-04-15T01:15:25.805Z,5.55
2023-04-15T01:17:52.713Z,5.05
2023-04-15T01:20:20.597Z,4.75
2023-04-15T01:22:47.101Z,5.28
2023-04-15T01:25:18.606Z,5.22
2023-04-15T01:27:45.555Z,5.15
2023-04-15T01:30:12.509Z,4.93
2023-04-15T01:32:39.145Z,5.05
2023-04-15T01:35:06.205Z,5.30
2023-04-15T01:37:33.604Z,5.18
2023-04-15T01:40:00.206Z,5.05
2023-04-15T01:42:27.602Z,5.28
2023-04-15T01:44:54.458Z,5.00
2023-04-15T01:47:21.576Z,5.30
2023-04-15T01:49:48.452Z,5.60
2023-04-15T01:52:15.690Z,5.32
2023-04-15T01:54:42.526Z,4.75
2023-04-15T01:57:09.370Z,5.75
2023-04-15T01:59:36.252Z,5.90
2023-04-15T02:02:02.905Z,5.60
2023-04-15T02:04:29.442Z,6.05
2023-04-15T02:06:59.821Z,5.35
2023-04-15T02:09:26.337Z,5.10
2023-04-15T02:11:54.234Z,5.60
2023-04-15T02:14:20.970Z,5.43
2023-04-15T02:16:47.583Z,5.22
2023-04-15T02:19:15.864Z,5.55
2023-04-15T02:21:42.400Z,5.15
2023-04-15T02:24:09.097Z,4.93
2023-04-15T02:26:35.575Z,5.80
2023-04-15T02:29:02.464Z,5.50
2023-04-15T02:31:29.164Z,6.75
2023-04-15T02:33:55.758Z,6.88
2023-04-15T02:36:23.833Z,7.15
2023-04-15T02:38:50.669Z,6.57
2023-04-15T02:41:17.864Z,6.53
2023-04-15T02:43:45.693Z,5.90
2023-04-15T02:46:14.881Z,6.15
2023-04-15T02:48:41.825Z,6.60
2023-04-15T02:51:17.386Z,6.22
2023-04-15T02:53:44.066Z,6.60
2023-04-15T02:56:11.664Z,6.47
2023-04-15T02:58:39.373Z,7.15
2023-04-15T03:01:05.934Z,6.47
2023-04-15T03:03:32.724Z,6.60
2023-04-15T03:05:59.349Z,7.50
2023-04-15T03:08:26.528Z,7.30
2023-04-15T03:10:53.686Z,7.85
2023-04-15T03:13:20.856Z,7.40
2023-04-15T03:15:48.597Z,7.57
2023-04-15T03:18:15.561Z,7.78
2023-04-15T03:20:42.174Z,7.40
2023-04-15T03:23:08.873Z,7.60
2023-04-15T03:25:37.429Z,7.68
2023-04-15T03:28:06.094Z,7.75
2023-04-15T03:30:33.224Z,7.55
2023-04-15T03:32:59.822Z,8.48
2023-04-15T03:35:26.450Z,7.43
2023-04-15T03:37:53.009Z,9.93
2023-04-15T03:40:21.510Z,9.60
2023-04-15T03:42:48.133Z,10.48
2023-04-15T03:45:14.916Z,10.40
2023-04-15T03:47:41.578Z,10.00
2023-04-15T03:50:09.103Z,10.93
2023-04-15T03:52:35.733Z,10.25
2023-04-15T03:55:02.348Z,10.40
2023-04-15T03:57:28.852Z,11.18
2023-04-15T03:59:55.481Z,11.18
2023-04-15T04:02:23.185Z,11.90
2023-04-15T04:04:50.405Z,11.50
2023-04-15T04:07:18.312Z,10.63
2023-04-15T04:09:47.010Z,11.75
2023-04-15T04:12:14.005Z,11.80
2023-04-15T04:14:40.783Z,11.80
2023-04-15T04:17:07.407Z,11.25
2023-04-15T04:19:34.151Z,10.88
2023-04-15T04:22:01.311Z,11.43
2023-04-15T04:24:27.940Z,12.38
2023-04-15T04:26:54.458Z,12.70
2023-04-15T04:29:21.378Z,12.13
2023-04-15T04:31:48.938Z,12.52
2023-04-15T04:34:16.250Z,12.20
2023-04-15T04:36:42.762Z,11.80
2023-04-15T04:39:09.279Z,13.70
2023-04-15T04:41:35.979Z,12.48
2023-04-15T04:44:02.706Z,12.75
2023-04-15T04:46:29.293Z,12.77
2023-04-15T04:48:55.867Z,13.50
2023-04-15T04:51:22.499Z,13.18
2023-04-15T04:53:49.033Z,12.75
2023-04-15T04:56:16.030Z,12.55
2023-04-15T04:58:42.614Z,12.85
2023-04-15T05:01:09.165Z,11.75
2023-04-15T05:03:36.059Z,12.18
2023-04-15T05:06:06.128Z,13.13
2023-04-15T05:08:33.057Z,12.68
2023-04-15T05:10:59.489Z,12.82
2023-04-15T05:13:26.177Z,12.40
2023-04-15T05:15:52.747Z,12.10
2023-04-15T05:18:19.375Z,12.48
2023-04-15T05:20:46.256Z,12.48
2023-04-15T05:23:12.810Z,12.85
2023-04-15T05:25:39.382Z,11.38
2023-04-15T05:28:06.484Z,12.35
2023-04-15T05:30:33.029Z,13.88
2023-04-15T05:32:59.656Z,13.30
2023-04-15T05:35:26.170Z,13.65
2023-04-15T05:37:52.656Z,13.77
2023-04-15T05:40:20.075Z,13.32
2023-04-15T05:42:46.688Z,13.02
2023-04-15T05:45:13.600Z,13.18
2023-04-15T05:47:40.241Z,13.50
2023-04-15T05:50:08.283Z,13.27
2023-04-15T05:52:34.793Z,13.55
2023-04-15T05:55:01.472Z,13.93
2023-04-15T05:57:28.436Z,14.50
2023-04-15T05:59:57.221Z,14.45
2023-04-15T06:02:23.731Z,14.50
2023-04-15T06:04:50.379Z,13.88
2023-04-15T06:07:16.961Z,15.13
2023-04-15T06:09:43.463Z,15.63
2023-04-15T06:12:12.326Z,14.95
2023-04-15T06:14:40.470Z,15.88
2023-04-15T06:17:07.615Z,16.90
2023-04-15T06:19:34.587Z,16.38
2023-04-15T06:22:01.812Z,16.17
2023-04-15T06:24:28.742Z,16.52
2023-04-15T06:26:55.922Z,16.90
2023-04-15T06:29:22.428Z,16.63
2023-04-15T06:31:49.644Z,17.17
2023-04-15T06:34:16.358Z,18.85
2023-04-15T06:36:42.985Z,20.13
2023-04-15T06:39:09.490Z,19.10
2023-04-15T06:41:36.556Z,19.25
2023-04-15T06:44:03.289Z,20.23
2023-04-15T06:46:29.858Z,19.20
2023-04-15T06:48:56.335Z,20.65
2023-04-15T06:51:25.575Z,22.05
2023-04-15T06:53:53.368Z,21.83
2023-04-15T06:56:19.862Z,23.20
2023-04-15T06:58:46.356Z,23.17
2023-04-15T07:01:14.410Z,22.90
2023-04-15T07:03:41.940Z,24.30
2023-04-15T07:06:09.531Z,25.42
2023-04-15T07:08:36.307Z,24.05
2023-04-15T07:11:02.798Z,24.77
2023-04-15T07:13:31.915Z,24.08
2023-04-15T07:15:58.817Z,25.83
2023-04-15T07:18:25.541Z,25.20
2023-04-15T07:20:52.181Z,25.58
2023-04-15T07:23:18.824Z,27.13
2023-04-15T07:25:45.357Z,27.90
2023-04-15T07:28:11.957Z,27.15
2023-04-15T07:30:38.959Z,28.70
2023-04-15T07:33:05.650Z,28.95
2023-04-15T07:35:32.110Z,26.98
2023-04-15T07:37:58.723Z,28.08
2023-04-15T07:40:25.212Z,28.30
2023-04-15T07:42:52.465Z,28.77
2023-04-15T07:45:18.967Z,29.15
2023-04-15T07:47:45.990Z,28.65
2023-04-15T07:50:12.795Z,26.95
2023-04-15T07:52:39.436Z,26.95
2023-04-15T07:55:08.415Z,28.88
2023-04-15T07:57:36.160Z,28.85
2023-04-15T08:00:05.798Z,31.50
2023-04-15T08:02:40.655Z,28.73
2023-04-15T08:05:07.801Z,30.80
2023-04-15T08:07:34.399Z,30.48
2023-04-15T08:10:01.083Z,30.45
2023-04-15T08:12:27.572Z,30.95
2023-04-15T08:14:55.436Z,32.38
2023-04-15T08:17:22.010Z,31.63
2023-04-15T08:19:48.567Z,30.33
2023-04-15T08:22:17.660Z,29.27
2023-04-15T08:24:45.633Z,29.70
2023-04-15T08:27:12.215Z,31.67
2023-04-15T08:29:39.068Z,30.38
2023-04-15T08:32:06.364Z,29.67
2023-04-15T08:34:32.971Z,30.63
2023-04-15T08:36:59.397Z,28.95
2023-04-15T08:39:26.322Z,29.30
2023-04-15T08:42:01.933Z,32.47
2023-04-15T08:44:34.869Z,30.70
2023-04-15T08:47:03.052Z,31.35
2023-04-15T08:49:30.465Z,31.25
2023-04-15T08:51:59.683Z,32.55
2023-04-15T08:54:28.075Z,31.63
2023-04-15T08:56:54.814Z,31.42
2023-04-15T08:59:22.197Z,33.25
2023-04-15T09:01:50.939Z,33.83
2023-04-15T09:04:17.556Z,31.85
2023-04-15T09:06:44.312Z,32.33
2023-04-15T09:09:14.177Z,33.33
2023-04-15T09:11:40.904Z,32.03
2023-04-15T09:14:07.552Z,30.30
2023-04-15T09:17:04.281Z,32.25
2023-04-15T09:19:33.393Z,33.92
2023-04-15T09:22:00.071Z,31.83
2023-04-15T09:24:37.296Z,32.15
2023-04-15T09:27:04.175Z,33.60
2023-04-15T09:29:30.598Z,32.05
2023-04-15T09:31:57.088Z,31.58
2023-04-15T09:34:35.678Z,34.42
2023-04-15T09:37:02.116Z,32.05
2023-04-15T09:39:44.725Z,31.73
2023-04-15T09:42:11.501Z,31.50
2023-04-15T09:44:37.949Z,32.00
2023-04-15T09:47:04.522Z,32.35
2023-04-15T09:49:31.038Z,32.50
2023-04-15T09:52:05.992Z,32.30
2023-04-15T09:54:37.830Z,31.52
2023-04-15T09:57:09.845Z,30.50
2023-04-15T09:59:36.610Z,32.05
2023-04-15T10:02:07.462Z,30.73
2023-04-15T10:04:39.786Z,31.95
2023-04-15T10:07:07.307Z,31.73
2023-04-15T10:09:35.930Z,31.67
2023-04-15T10:12:05.603Z,31.50
2023-04-15T10:14:34.563Z,29.38
2023-04-15T10:17:05.598Z,32.70
2023-04-15T10:19:33.826Z,32.40
2023-04-15T10:22:00.505Z,32.38
2023-04-15T10:24:27.995Z,32.55
2023-04-15T10:26:55.429Z,32.05
2023-04-15T10:29:23.297Z,30.60
2023-04-15T10:31:50.151Z,29.55
2023-04-15T10:34:17.450Z,30.02
2023-04-15T10:36:43.861Z,30.13
2023-04-15T10:39:33.885Z,30.52
2023-04-15T10:42:07.788Z,29.25
2023-04-15T10:44:36.664Z,28.27
2023-04-15T10:47:19.428Z,30.83
2023-04-15T10:49:52.340Z,28.70
2023-04-15T10:52:27.448Z,30.85
2023-04-15T10:55:19.155Z,31.42
2023-04-15T10:57:45.956Z,29.48
2023-04-15T11:00:14.822Z,28.60
2023-04-15T11:02:52.181Z,26.63
2023-04-15T11:05:20.672Z,27.00
2023-04-15T11:07:48.404Z,28.98
2023-04-15T11:10:17.527Z,28.88
2023-04-15T11:12:58.002Z,27.75
2023-04-15T11:15:35.820Z,28.83
2023-04-15T11:18:10.466Z,28.45
2023-04-15T11:20:38.658Z,27.85
2023-04-15T11:23:12.146Z,27.20
2023-04-15T11:25:41.726Z,27.20
2023-04-15T11:28:08.312Z,27.00
2023-04-15T11:30:37.312Z,26.88
2023-04-15T11:33:09.497Z,28.58
2023-04-15T11:35:36.328Z,26.02
2023-04-15T11:38:04.003Z,25.70
2023-04-15T11:40:31.582Z,24.92
2023-04-15T11:43:15.886Z,25.20
2023-04-15T11:45:59.941Z,26.77
2023-04-15T11:48:36.576Z,24.67
2023-04-15T11:51:07.835Z,24.30
2023-04-15T11:53:42.542Z,25.00
2023-04-15T11:56:18.658Z,24.48
2023-04-15T11:58:46.389Z,25.58
2023-04-15T12:01:13.640Z,26.50
2023-04-15T12:03:49.425Z,25.02
2023-04-15T12:06:21.386Z,24.10
2023-04-15T12:09:10.052Z,25.77
2023-04-15T12:11:39.599Z,23.83
2023-04-15T12:14:16.644Z,26.17
2023-04-15T12:16:49.301Z,25.23
2023-04-15T12:19:22.638Z,26.20
2023-04-15T12:21:50.473Z,24.08
2023-04-15T12:24:21.852Z,24.50
2023-04-15T12:26:53.656Z,24.33
2023-04-15T12:29:25.025Z,24.92
2023-04-15T12:31:53.682Z,25.25
2023-04-15T12:34:34.696Z,24.13
2023-04-15T12:37:03.561Z,27.02
2023-04-15T12:39:36.412Z,25.45
2023-04-15T12:42:04.376Z,25.73
2023-04-15T12:44:31.601Z,25.92
2023-04-15T12:46:58.252Z,24.23
2023-04-15T12:49:25.624Z,23.85
2023-04-15T12:51:54.710Z,23.48
2023-04-15T12:54:22.037Z,22.73
2023-04-15T12:56:50.261Z,22.15
2023-04-15T12:59:20.174Z,22.83
2023-04-15T13:01:48.542Z,21.42
2023-04-15T13:04:15.610Z,21.10
2023-04-15T13:06:42.972Z,23.05
2023-04-15T13:09:09.578Z,22.20
2023-04-15T13:11:36.561Z,21.35
2023-04-15T13:14:05.152Z,21.42
2023-04-15T13:16:33.227Z,20.40
2023-04-15T13:19:00.336Z,21.60
2023-04-15T13:21:27.333Z,20.52
2023-04-15T13:23:54.305Z,19.75
2023-04-15T13:26:21.248Z,18.20
2023-04-15T13:28:47.973Z,19.85
2023-04-15T13:31:14.579Z,19.92
2023-04-15T13:33:41.266Z,19.13
2023-04-15T13:36:08.348Z,18.13
2023-04-15T13:38:34.837Z,19.55
2023-04-15T13:41:01.573Z,17.00
2023-04-15T13:43:28.314Z,18.25
2023-04-15T13:45:55.313Z,19.00
2023-04-15T13:48:22.088Z,19.30
2023-04-15T13:50:48.579Z,17.27
2023-04-15T13:53:15.124Z,19.17
2023-04-15T13:55:42.802Z,17.70
2023-04-15T13:58:10.242Z,17.35
2023-04-15T14:00:36.962Z,17.92
2023-04-15T14:03:03.893Z,18.60
2023-04-15T14:05:30.747Z,18.10
2023-04-15T14:07:57.597Z,19.23
2023-04-15T14:10:24.274Z,17.70
2023-04-15T14:12:50.982Z,18.83
2023-04-15T14:15:17.496Z,18.08
2023-04-15T14:17:44.141Z,17.27
2023-04-15T14:20:10.914Z,16.85
2023-04-15T14:22:37.573Z,17.00
2023-04-15T14:25:04.839Z,17.38
2023-04-15T14:27:31.392Z,17.15
2023-04-15T14:29:58.752Z,16.13
2023-04-15T14:32:26.296Z,16.08
2023-04-15T14:34:52.855Z,15.48
2023-04-15T14:37:19.484Z,16.38
2023-04-15T14:39:46.296Z,16.58
2023-04-15T14:42:12.789Z,15.25
2023-04-15T14:44:39.270Z,15.50
2023-04-15T14:47:06.104Z,14.45
2023-04-15T14:49:32.689Z,14.80
2023-04-15T14:51:59.246Z,14.52
2023-04-15T14:54:25.737Z,15.60
2023-04-15T14:56:52.271Z,14.80
2023-04-15T14:59:18.766Z,14.98
2023-04-15T15:01:45.565Z,14.73
2023-04-15T15:04:13.078Z,14.40
2023-04-15T15:06:40.638Z,14.10
2023-04-15T15:09:07.602Z,14.63
2023-04-15T15:11:34.219Z,14.35
2023-04-15T15:14:00.951Z,14.13
2023-04-15T15:16:28.255Z,15.05
2023-04-15T15:18:55.409Z,14.32
2023-04-15T15:21:22.008Z,14.20
2023-04-15T15:23:48.517Z,13.65
2023-04-15T15:26:15.750Z,14.55
2023-04-15T15:28:42.418Z,14.07
2023-04-15T15:31:09.002Z,14.57
2023-04-15T15:33:36.071Z,14.82
2023-04-15T15:36:03.776Z,14.18
2023-04-15T15:38:30.331Z,14.13
2023-04-15T15:40:56.787Z,14.18
2023-04-15T15:43:23.340Z,13.70
2023-04-15T15:45:52.196Z,13.93
2023-04-15T15:48:18.829Z,15.27
2023-04-15T15:50:45.779Z,16.27
2023-04-15T15:53:17.831Z,14.50
2023-04-15T15:55:44.287Z,15.85
2023-04-15T15:58:10.971Z,14.52
2023-04-15T16:00:37.446Z,16.73
2023-04-15T16:03:07.258Z,17.30
2023-04-15T16:05:34.526Z,17.52
2023-04-15T16:08:01.112Z,16.33
2023-04-15T16:10:28.021Z,17.88
2023-04-15T16:12:54.937Z,17.75
2023-04-15T16:15:22.866Z,16.98
2023-04-15T16:17:49.581Z,17.92
2023-04-15T16:20:16.626Z,18.40
2023-04-15T16:22:43.128Z,18.08
2023-04-15T16:25:09.983Z,17.92
2023-04-15T16:27:50.281Z,19.20
2023-04-15T16:30:23.252Z,18.20
2023-04-15T16:32:49.790Z,18.50
2023-04-15T16:35:17.108Z,17.85
2023-04-15T16:37:43.698Z,18.67
2023-04-15T16:40:10.675Z,17.17
2023-04-15T16:42:37.203Z,18.60
2023-04-15T16:45:03.942Z,17.80
2023-04-15T16:47:30.505Z,18.92
2023-04-15T16:49:57.000Z,18.13
2023-04-15T16:52:23.497Z,18.75
2023-04-15T16:54:49.977Z,18.10
2023-04-15T16:57:16.545Z,17.70
2023-04-15T16:59:43.035Z,19.27
2023-04-15T17:02:12.464Z,18.45
2023-04-15T17:04:39.710Z,17.75
2023-04-15T17:07:06.800Z,18.02
2023-04-15T17:09:33.525Z,18.63
2023-04-15T17:12:01.033Z,17.90
2023-04-15T17:14:28.852Z,19.38
2023-04-15T17:16:55.875Z,19.05
2023-04-15T17:19:22.493Z,19.30
2023-04-15T17:21:50.582Z,19.10
2023-04-15T17:24:17.227Z,19.48
2023-04-15T17:26:43.848Z,19.50
2023-04-15T17:29:10.402Z,19.60
2023-04-15T17:31:37.108Z,19.00
2023-04-15T17:34:07.804Z,20.58
2023-04-15T17:36:37.373Z,20.15
2023-04-15T17:39:04.660Z,20.48
2023-04-15T17:41:31.372Z,20.90
2023-04-15T17:43:57.872Z,21.13
2023-04-15T17:46:24.639Z,21.10
2023-04-15T17:48:51.168Z,21.38
2023-04-15T17:51:17.810Z,20.98
2023-04-15T17:53:44.288Z,21.35
2023-04-15T17:56:11.023Z,20.63
2023-04-15T17:58:39.373Z,21.98
2023-04-15T18:01:06.605Z,21.85
2023-04-15T18:03:33.280Z,22.20
2023-04-15T18:06:01.308Z,22.48
2023-04-15T18:08:28.833Z,22.27
2023-04-15T18:10:55.266Z,22.38
2023-04-15T18:13:21.720Z,22.98
2023-04-15T18:15:51.627Z,23.98
2023-04-15T18:18:18.332Z,23.95
2023-04-15T18:20:44.778Z,23.00
2023-04-15T18:23:11.423Z,22.55
2023-04-15T18:25:38.341Z,23.40
2023-04-15T18:28:05.593Z,22.50
2023-04-15T18:30:32.125Z,22.80
2023-04-15T18:32:58.779Z,21.15
2023-04-15T18:35:25.276Z,21.63
2023-04-15T18:37:52.838Z,22.83
2023-04-15T18:40:19.436Z,22.15
2023-04-15T18:42:45.942Z,23.33
2023-04-15T18:45:12.486Z,23.23
2023-04-15T18:47:39.167Z,21.48
2023-04-15T18:50:06.747Z,22.88
2023-04-15T18:52:34.131Z,22.85
2023-04-15T18:55:02.994Z,20.88
2023-04-15T18:57:34.784Z,22.00
2023-04-15T19:00:01.993Z,22.40
2023-04-15T19:02:28.634Z,22.60
2023-04-15T19:04:55.204Z,22.17
2023-04-15T19:07:22.126Z,21.55
2023-04-15T19:09:48.892Z,22.33
2023-04-15T19:12:15.320Z,22.10
2023-04-15T19:14:41.756Z,21.67
2023-04-15T19:17:08.231Z,22.73
2023-04-15T19:19:34.740Z,20.60
2023-04-15T19:22:01.681Z,23.38
2023-04-15T19:24:28.265Z,23.75
2023-04-15T19:26:54.717Z,23.58
2023-04-15T19:29:21.871Z,25.02
2023-04-15T19:31:48.366Z,24.33
2023-04-15T19:34:14.829Z,24.20
2023-04-15T19:36:41.357Z,23.75
2023-04-15T19:39:08.418Z,24.35
2023-04-15T19:41:35.022Z,23.15
2023-04-15T19:44:02.959Z,22.95
2023-04-15T19:46:29.560Z,24.75
2023-04-15T19:48:56.161Z,23.30
2023-04-15T19:51:22.710Z,23.30
2023-04-15T19:53:53.871Z,22.42
2023-04-15T19:56:20.670Z,22.63
2023-04-15T19:58:52.774Z,23.50
2023-04-15T20:01:20.341Z,24.83
2023-04-15T20:03:47.466Z,23.55
2023-04-15T20:06:15.639Z,23.23
2023-04-15T20:08:42.150Z,23.15
2023-04-15T20:11:09.854Z,24.48
2023-04-15T20:13:36.811Z,25.27
2023-04-15T20:16:03.455Z,23.58
2023-04-15T20:18:29.971Z,25.80
2023-04-15T20:20:56.402Z,25.40
2023-04-15T20:23:22.813Z,23.75
2023-04-15T20:25:49.217Z,26.95
2023-04-15T20:28:17.875Z,24.75
2023-04-15T20:30:44.440Z,25.55
2023-04-15T20:33:11.566Z,24.17
2023-04-15T20:35:38.846Z,23.67
2023-04-15T20:38:05.738Z,24.33
2023-04-15T20:40:33.712Z,24.05
2023-04-15T20:43:00.540Z,24.75
2023-04-15T20:45:26.960Z,25.33
2023-04-15T20:47:55.090Z,25.85
2023-04-15T20:50:21.614Z,24.70
2023-04-15T20:52:48.020Z,25.15
2023-04-15T20:55:14.493Z,24.35
2023-04-15T20:57:41.115Z,24.92
2023-04-15T21:00:09.811Z,23.25
2023-04-15T21:02:36.943Z,24.75
2023-04-15T21:05:03.624Z,25.08
2023-04-15T21:07:30.069Z,25.25
2023-04-15T21:09:56.618Z,24.27
2023-04-15T21:12:23.166Z,24.25
2023-04-15T21:14:49.861Z,23.85
2023-04-15T21:17:16.407Z,26.48
2023-04-15T21:19:43.009Z,24.85
2023-04-15T21:22:09.791Z,24.98
2023-04-15T21:24:36.198Z,24.90
2023-04-15T21:27:02.818Z,24.58
2023-04-15T21:29:29.279Z,23.95
2023-04-15T21:31:55.733Z,25.02
2023-04-15T21:34:22.185Z,24.08
2023-04-15T21:36:48.606Z,23.05
2023-04-15T21:39:15.228Z,23.08
2023-04-15T21:41:41.724Z,22.95
2023-04-15T21:44:08.215Z,23.45
2023-04-15T21:46:35.922Z,24.38
2023-04-15T21:49:03.471Z,22.05
2023-04-15T21:51:30.063Z,22.73
2023-04-15T21:53:56.878Z,22.77
2023-04-15T21:56:24.553Z,23.52
2023-04-15T21:58:54.036Z,24.70
2023-04-15T22:01:21.080Z,26.17
2023-04-15T22:03:47.857Z,25.38
2023-04-15T22:06:14.447Z,25.58
2023-04-15T22:08:55.151Z,27.83
2023-04-15T22:11:30.181Z,29.30
2023-04-15T22:13:57.674Z,28.17
2023-04-15T22:16:27.497Z,27.75
2023-04-15T22:18:55.186Z,28.58
2023-04-15T22:21:22.016Z,28.20
2023-04-15T22:23:49.219Z,28.80
2023-04-15T22:26:15.786Z,29.40
2023-04-15T22:28:42.206Z,26.13
2023-04-15T22:31:08.782Z,27.38
2023-04-15T22:33:35.419Z,28.85
2023-04-15T22:36:01.971Z,28.15
2023-04-15T22:38:28.423Z,26.83
2023-04-15T22:40:54.968Z,27.15
2023-04-15T22:43:21.524Z,26.85
2023-04-15T22:45:50.517Z,30.20
2023-04-15T22:48:18.133Z,27.77
2023-04-15T22:50:44.678Z,29.98
2023-04-15T22:53:11.237Z,28.67
2023-04-15T22:55:37.643Z,28.90
2023-04-15T22:58:04.184Z,27.50
2023-04-15T23:00:30.612Z,27.83
2023-04-15T23:02:57.156Z,28.08
2023-04-15T23:05:23.790Z,27.13
2023-04-15T23:07:50.816Z,25.75
2023-04-15T23:10:17.236Z,27.17
2023-04-15T23:12:43.685Z,25.35
2023-04-15T23:15:10.530Z,27.08
2023-04-15T23:17:37.020Z,26.13
2023-04-15T23:20:03.601Z,25.00
2023-04-15T23:22:30.581Z,26.65
2023-04-15T23:24:56.998Z,25.15
2023-04-15T23:27:23.453Z,25.85
2023-04-15T23:29:49.895Z,26.58
2023-04-15T23:32:16.320Z,25.63
2023-04-15T23:34:42.798Z,26.27
2023-04-15T23:37:09.217Z,25.05
2023-04-15T23:39:35.614Z,24.40
2023-04-15T23:42:02.176Z,24.30
2023-04-15T23:44:28.595Z,25.27
2023-04-15T23:46:55.052Z,24.10
2023-04-15T23:49:21.558Z,24.35
2023-04-15T23:51:48.040Z,24.27
2023-04-15T23:54:14.910Z,24.58
2023-04-15T23:56:41.356Z,25.23
2023-04-15T23:59:08.061Z,24.40
